sensor_id;sensor_type;location;lat;lon;timestamp;P1;durP1;ratioP1;P2;durP2;ratioP2
4873;SDS011;2451;49.970;9.068;2023-09-07T00:00:44;7.22;;;4.35;;
4873;SDS011;2451;49.970;9.068;2023-09-07T00:03:11;6.07;;;3.65;;
4873;SDS011;2451;49.970;9.068;2023-09-07T00:05:37;5.97;;;3.60;;
4873;SDS011;2451;49.970;9.068;2023-09-07T00:08:03;5.85;;;3.55;;
4873;SDS011;2451;49.970;9.068;2023-09-07T00:10:29;6.45;;;3.70;;
4873;SDS011;2451;49.970;9.068;2023-09-07T00:12:54;5.32;;;3.55;;
4873;SDS011;2451;49.970;9.068;2023-09-07T00:15:20;6.55;;;4.43;;
4873;SDS011;2451;49.970;9.068;2023-09-07T00:17:46;6.38;;;3.97;;
4873;SDS011;2451;49.970;9.068;2023-09-07T00:20:11;6.00;;;3.80;;
4873;SDS011;2451;49.970;9.068;2023-09-07T00:22:39;6.68;;;4.03;;
4873;SDS011;2451;49.970;9.068;2023-09-07T00:25:05;6.82;;;3.97;;
4873;SDS011;2451;49.970;9.068;2023-09-07T00:27:31;7.47;;;4.63;;
4873;SDS011;2451;49.970;9.068;2023-09-07T00:30:00;6.57;;;4.30;;
4873;SDS011;2451;49.970;9.068;2023-09-07T00:32:26;6.63;;;4.03;;
4873;SDS011;2451;49.970;9.068;2023-09-07T00:34:51;7.05;;;4.13;;
4873;SDS011;2451;49.970;9.068;2023-09-07T00:37:17;6.82;;;4.20;;
4873;SDS011;2451;49.970;9.068;2023-09-07T00:39:42;6.60;;;4.20;;
4873;SDS011;2451;49.970;9.068;2023-09-07T00:42:08;7.30;;;4.30;;
4873;SDS011;2451;49.970;9.068;2023-09-07T00:44:33;7.28;;;4.35;;
4873;SDS011;2451;49.970;9.068;2023-09-07T00:46:59;7.35;;;3.67;;
4873;SDS011;2451;49.970;9.068;2023-09-07T00:49:24;7.32;;;4.07;;
4873;SDS011;2451;49.970;9.068;2023-09-07T00:51:51;6.63;;;4.00;;
4873;SDS011;2451;49.970;9.068;2023-09-07T00:54:17;6.53;;;3.90;;
4873;SDS011;2451;49.970;9.068;2023-09-07T00:56:44;6.25;;;3.70;;
4873;SDS011;2451;49.970;9.068;2023-09-07T00:59:09;7.35;;;4.00;;
4873;SDS011;2451;49.970;9.068;2023-09-07T01:01:37;6.53;;;4.35;;
4873;SDS011;2451;49.970;9.068;2023-09-07T01:04:03;7.25;;;3.85;;
4873;SDS011;2451;49.970;9.068;2023-09-07T01:06:30;6.28;;;4.00;;
4873;SDS011;2451;49.970;9.068;2023-09-07T01:09:10;5.80;;;3.92;;
4873;SDS011;2451;49.970;9.068;2023-09-07T01:11:40;6.80;;;4.10;;
4873;SDS011;2451;49.970;9.068;2023-09-07T01:14:05;6.80;;;4.13;;
4873;SDS011;2451;49.970;9.068;2023-09-07T01:16:31;7.80;;;4.50;;
4873;SDS011;2451;49.970;9.068;2023-09-07T01:18:59;6.38;;;4.13;;
4873;SDS011;2451;49.970;9.068;2023-09-07T01:28:09;7.25;;;4.22;;
4873;SDS011;2451;49.970;9.068;2023-09-07T01:30:36;6.63;;;4.53;;
4873;SDS011;2451;49.970;9.068;2023-09-07T01:33:03;6.40;;;3.95;;
4873;SDS011;2451;49.970;9.068;2023-09-07T01:35:30;6.97;;;3.92;;
4873;SDS011;2451;49.970;9.068;2023-09-07T01:37:58;7.28;;;4.25;;
4873;SDS011;2451;49.970;9.068;2023-09-07T01:40:23;7.75;;;4.10;;
4873;SDS011;2451;49.970;9.068;2023-09-07T01:42:49;6.85;;;4.07;;
4873;SDS011;2451;49.970;9.068;2023-09-07T01:45:14;6.20;;;4.03;;
4873;SDS011;2451;49.970;9.068;2023-09-07T01:47:40;6.90;;;4.18;;
4873;SDS011;2451;49.970;9.068;2023-09-07T01:50:05;7.50;;;4.28;;
4873;SDS011;2451;49.970;9.068;2023-09-07T01:52:31;7.60;;;4.03;;
4873;SDS011;2451;49.970;9.068;2023-09-07T01:54:56;5.95;;;3.83;;
4873;SDS011;2451;49.970;9.068;2023-09-07T01:57:22;6.43;;;3.85;;
4873;SDS011;2451;49.970;9.068;2023-09-07T01:59:48;6.50;;;4.10;;
4873;SDS011;2451;49.970;9.068;2023-09-07T02:02:13;5.40;;;3.40;;
4873;SDS011;2451;49.970;9.068;2023-09-07T02:04:39;5.75;;;3.90;;
4873;SDS011;2451;49.970;9.068;2023-09-07T02:07:05;6.82;;;3.83;;
4873;SDS011;2451;49.970;9.068;2023-09-07T02:09:31;7.18;;;3.80;;
4873;SDS011;2451;49.970;9.068;2023-09-07T02:11:57;6.72;;;4.20;;
4873;SDS011;2451;49.970;9.068;2023-09-07T02:14:22;5.50;;;3.53;;
4873;SDS011;2451;49.970;9.068;2023-09-07T02:16:48;5.13;;;3.47;;
4873;SDS011;2451;49.970;9.068;2023-09-07T02:19:14;6.00;;;3.80;;
4873;SDS011;2451;49.970;9.068;2023-09-07T02:21:39;6.07;;;3.53;;
4873;SDS011;2451;49.970;9.068;2023-09-07T02:24:05;5.78;;;3.35;;
4873;SDS011;2451;49.970;9.068;2023-09-07T02:26:30;6.78;;;4.10;;
4873;SDS011;2451;49.970;9.068;2023-09-07T02:28:56;6.38;;;3.92;;
4873;SDS011;2451;49.970;9.068;2023-09-07T02:31:21;5.93;;;3.72;;
4873;SDS011;2451;49.970;9.068;2023-09-07T02:33:47;6.15;;;3.60;;
4873;SDS011;2451;49.970;9.068;2023-09-07T02:36:12;5.53;;;3.70;;
4873;SDS011;2451;49.970;9.068;2023-09-07T02:38:38;7.10;;;3.83;;
4873;SDS011;2451;49.970;9.068;2023-09-07T02:41:03;6.35;;;3.72;;
4873;SDS011;2451;49.970;9.068;2023-09-07T02:43:29;7.28;;;4.03;;
4873;SDS011;2451;49.970;9.068;2023-09-07T02:45:55;6.03;;;3.70;;
4873;SDS011;2451;49.970;9.068;2023-09-07T02:48:21;7.05;;;3.60;;
4873;SDS011;2451;49.970;9.068;2023-09-07T02:50:47;6.45;;;3.90;;
4873;SDS011;2451;49.970;9.068;2023-09-07T02:53:15;7.53;;;4.20;;
4873;SDS011;2451;49.970;9.068;2023-09-07T02:55:41;6.32;;;3.65;;
4873;SDS011;2451;49.970;9.068;2023-09-07T02:58:06;6.82;;;4.10;;
4873;SDS011;2451;49.970;9.068;2023-09-07T03:00:32;6.40;;;3.67;;
4873;SDS011;2451;49.970;9.068;2023-09-07T03:02:57;5.85;;;3.30;;
4873;SDS011;2451;49.970;9.068;2023-09-07T03:05:26;6.00;;;3.55;;
4873;SDS011;2451;49.970;9.068;2023-09-07T03:07:53;7.20;;;3.90;;
4873;SDS011;2451;49.970;9.068;2023-09-07T03:10:19;7.13;;;4.05;;
4873;SDS011;2451;49.970;9.068;2023-09-07T03:12:44;6.28;;;3.47;;
4873;SDS011;2451;49.970;9.068;2023-09-07T03:15:10;5.32;;;3.55;;
4873;SDS011;2451;49.970;9.068;2023-09-07T03:17:37;6.63;;;3.45;;
4873;SDS011;2451;49.970;9.068;2023-09-07T03:20:03;5.55;;;3.50;;
4873;SDS011;2451;49.970;9.068;2023-09-07T03:22:39;6.85;;;3.47;;
4873;SDS011;2451;49.970;9.068;2023-09-07T03:25:06;5.53;;;3.80;;
4873;SDS011;2451;49.970;9.068;2023-09-07T03:27:32;6.40;;;3.67;;
4873;SDS011;2451;49.970;9.068;2023-09-07T03:29:57;5.55;;;3.65;;
4873;SDS011;2451;49.970;9.068;2023-09-07T03:32:23;5.53;;;3.45;;
4873;SDS011;2451;49.970;9.068;2023-09-07T03:34:48;5.57;;;3.58;;
4873;SDS011;2451;49.970;9.068;2023-09-07T03:37:14;5.68;;;3.38;;
4873;SDS011;2451;49.970;9.068;2023-09-07T03:39:39;5.80;;;3.17;;
4873;SDS011;2451;49.970;9.068;2023-09-07T03:42:05;5.82;;;3.63;;
4873;SDS011;2451;49.970;9.068;2023-09-07T03:44:30;6.30;;;3.28;;
4873;SDS011;2451;49.970;9.068;2023-09-07T03:46:56;5.72;;;3.63;;
4873;SDS011;2451;49.970;9.068;2023-09-07T03:49:21;5.40;;;3.72;;
4873;SDS011;2451;49.970;9.068;2023-09-07T03:51:47;6.13;;;3.28;;
4873;SDS011;2451;49.970;9.068;2023-09-07T03:54:12;6.95;;;3.63;;
4873;SDS011;2451;49.970;9.068;2023-09-07T03:56:38;5.78;;;3.75;;
4873;SDS011;2451;49.970;9.068;2023-09-07T03:59:04;4.85;;;3.35;;
4873;SDS011;2451;49.970;9.068;2023-09-07T04:01:29;5.72;;;3.78;;
4873;SDS011;2451;49.970;9.068;2023-09-07T04:03:55;7.18;;;4.13;;
4873;SDS011;2451;49.970;9.068;2023-09-07T04:06:20;6.43;;;3.83;;
4873;SDS011;2451;49.970;9.068;2023-09-07T04:08:46;6.40;;;3.92;;
4873;SDS011;2451;49.970;9.068;2023-09-07T04:11:11;5.03;;;3.00;;
4873;SDS011;2451;49.970;9.068;2023-09-07T04:13:37;5.40;;;3.63;;
4873;SDS011;2451;49.970;9.068;2023-09-07T04:16:02;6.05;;;3.83;;
4873;SDS011;2451;49.970;9.068;2023-09-07T04:18:28;6.10;;;3.92;;
4873;SDS011;2451;49.970;9.068;2023-09-07T04:21:03;5.35;;;3.72;;
4873;SDS011;2451;49.970;9.068;2023-09-07T04:23:30;5.45;;;3.40;;
4873;SDS011;2451;49.970;9.068;2023-09-07T04:26:06;6.65;;;3.90;;
4873;SDS011;2451;49.970;9.068;2023-09-07T04:28:36;8.10;;;3.90;;
4873;SDS011;2451;49.970;9.068;2023-09-07T04:31:02;6.88;;;3.70;;
4873;SDS011;2451;49.970;9.068;2023-09-07T04:33:32;6.05;;;3.67;;
4873;SDS011;2451;49.970;9.068;2023-09-07T04:36:08;5.88;;;3.78;;
4873;SDS011;2451;49.970;9.068;2023-09-07T04:38:33;5.57;;;3.60;;
4873;SDS011;2451;49.970;9.068;2023-09-07T04:41:08;5.50;;;3.38;;
4873;SDS011;2451;49.970;9.068;2023-09-07T04:43:35;6.05;;;3.80;;
4873;SDS011;2451;49.970;9.068;2023-09-07T04:46:02;5.90;;;3.83;;
4873;SDS011;2451;49.970;9.068;2023-09-07T04:48:27;6.82;;;3.75;;
4873;SDS011;2451;49.970;9.068;2023-09-07T04:51:03;6.55;;;3.60;;
4873;SDS011;2451;49.970;9.068;2023-09-07T04:53:31;5.53;;;3.55;;
4873;SDS011;2451;49.970;9.068;2023-09-07T04:55:58;5.68;;;3.58;;
4873;SDS011;2451;49.970;9.068;2023-09-07T04:58:24;6.32;;;3.80;;
4873;SDS011;2451;49.970;9.068;2023-09-07T05:00:50;6.30;;;3.80;;
4873;SDS011;2451;49.970;9.068;2023-09-07T05:03:16;6.28;;;3.67;;
4873;SDS011;2451;49.970;9.068;2023-09-07T05:05:42;6.43;;;3.63;;
4873;SDS011;2451;49.970;9.068;2023-09-07T05:08:08;6.47;;;3.88;;
4873;SDS011;2451;49.970;9.068;2023-09-07T05:10:34;6.32;;;4.03;;
4873;SDS011;2451;49.970;9.068;2023-09-07T05:13:00;5.90;;;4.05;;
4873;SDS011;2451;49.970;9.068;2023-09-07T05:15:25;7.47;;;3.97;;
4873;SDS011;2451;49.970;9.068;2023-09-07T05:17:51;6.25;;;3.78;;
4873;SDS011;2451;49.970;9.068;2023-09-07T05:20:17;7.18;;;4.10;;
4873;SDS011;2451;49.970;9.068;2023-09-07T05:22:43;6.57;;;3.75;;
4873;SDS011;2451;49.970;9.068;2023-09-07T05:25:09;6.72;;;4.10;;
4873;SDS011;2451;49.970;9.068;2023-09-07T05:27:35;6.40;;;3.97;;
4873;SDS011;2451;49.970;9.068;2023-09-07T05:30:01;6.57;;;3.70;;
4873;SDS011;2451;49.970;9.068;2023-09-07T05:32:27;7.05;;;3.90;;
4873;SDS011;2451;49.970;9.068;2023-09-07T05:34:53;9.13;;;4.68;;
4873;SDS011;2451;49.970;9.068;2023-09-07T05:37:18;6.93;;;3.70;;
4873;SDS011;2451;49.970;9.068;2023-09-07T05:39:44;5.28;;;3.65;;
4873;SDS011;2451;49.970;9.068;2023-09-07T05:42:09;5.93;;;3.90;;
4873;SDS011;2451;49.970;9.068;2023-09-07T05:44:35;8.75;;;4.00;;
4873;SDS011;2451;49.970;9.068;2023-09-07T05:47:00;6.35;;;4.07;;
4873;SDS011;2451;49.970;9.068;2023-09-07T05:49:27;6.95;;;4.07;;
4873;SDS011;2451;49.970;9.068;2023-09-07T05:51:52;5.82;;;3.70;;
4873;SDS011;2451;49.970;9.068;2023-09-07T05:54:18;6.50;;;4.07;;
4873;SDS011;2451;49.970;9.068;2023-09-07T05:56:44;6.65;;;4.10;;
4873;SDS011;2451;49.970;9.068;2023-09-07T05:59:09;7.68;;;4.40;;
4873;SDS011;2451;49.970;9.068;2023-09-07T06:01:35;5.50;;;3.85;;
4873;SDS011;2451;49.970;9.068;2023-09-07T06:04:01;7.03;;;3.90;;
4873;SDS011;2451;49.970;9.068;2023-09-07T06:06:27;7.57;;;3.92;;
4873;SDS011;2451;49.970;9.068;2023-09-07T06:08:53;11.55;;;4.43;;
4873;SDS011;2451;49.970;9.068;2023-09-07T06:11:18;6.38;;;4.22;;
4873;SDS011;2451;49.970;9.068;2023-09-07T06:13:44;6.80;;;4.20;;
4873;SDS011;2451;49.970;9.068;2023-09-07T06:16:11;6.95;;;4.00;;
4873;SDS011;2451;49.970;9.068;2023-09-07T06:18:36;7.40;;;4.45;;
4873;SDS011;2451;49.970;9.068;2023-09-07T06:21:02;6.15;;;4.25;;
4873;SDS011;2451;49.970;9.068;2023-09-07T06:23:29;8.48;;;4.40;;
4873;SDS011;2451;49.970;9.068;2023-09-07T06:25:54;6.93;;;4.38;;
4873;SDS011;2451;49.970;9.068;2023-09-07T06:28:20;6.00;;;3.85;;
4873;SDS011;2451;49.970;9.068;2023-09-07T06:30:46;7.38;;;3.95;;
4873;SDS011;2451;49.970;9.068;2023-09-07T06:33:11;6.30;;;4.10;;
4873;SDS011;2451;49.970;9.068;2023-09-07T06:35:37;6.35;;;4.00;;
4873;SDS011;2451;49.970;9.068;2023-09-07T06:38:03;6.75;;;4.20;;
4873;SDS011;2451;49.970;9.068;2023-09-07T06:40:28;5.57;;;3.45;;
4873;SDS011;2451;49.970;9.068;2023-09-07T06:42:54;6.85;;;4.35;;
4873;SDS011;2451;49.970;9.068;2023-09-07T06:45:22;6.57;;;3.80;;
4873;SDS011;2451;49.970;9.068;2023-09-07T06:47:51;6.95;;;4.07;;
4873;SDS011;2451;49.970;9.068;2023-09-07T06:50:17;6.87;;;3.97;;
4873;SDS011;2451;49.970;9.068;2023-09-07T06:52:43;6.38;;;4.07;;
4873;SDS011;2451;49.970;9.068;2023-09-07T06:55:08;7.30;;;4.32;;
4873;SDS011;2451;49.970;9.068;2023-09-07T06:57:34;5.80;;;3.92;;
4873;SDS011;2451;49.970;9.068;2023-09-07T07:00:00;5.20;;;3.45;;
4873;SDS011;2451;49.970;9.068;2023-09-07T07:02:26;6.32;;;3.92;;
4873;SDS011;2451;49.970;9.068;2023-09-07T07:04:51;4.95;;;3.38;;
4873;SDS011;2451;49.970;9.068;2023-09-07T07:07:17;7.13;;;3.67;;
4873;SDS011;2451;49.970;9.068;2023-09-07T07:09:43;5.60;;;3.33;;
4873;SDS011;2451;49.970;9.068;2023-09-07T07:12:08;5.72;;;3.60;;
4873;SDS011;2451;49.970;9.068;2023-09-07T07:14:34;5.05;;;3.35;;
4873;SDS011;2451;49.970;9.068;2023-09-07T07:17:00;5.53;;;3.60;;
4873;SDS011;2451;49.970;9.068;2023-09-07T07:19:28;6.65;;;3.88;;
4873;SDS011;2451;49.970;9.068;2023-09-07T07:21:54;6.38;;;3.95;;
4873;SDS011;2451;49.970;9.068;2023-09-07T07:24:19;6.70;;;3.70;;
4873;SDS011;2451;49.970;9.068;2023-09-07T07:26:45;5.63;;;3.70;;
4873;SDS011;2451;49.970;9.068;2023-09-07T07:29:11;5.20;;;3.53;;
4873;SDS011;2451;49.970;9.068;2023-09-07T07:31:37;5.10;;;3.50;;
4873;SDS011;2451;49.970;9.068;2023-09-07T07:34:03;5.28;;;3.60;;
4873;SDS011;2451;49.970;9.068;2023-09-07T07:36:29;6.40;;;3.90;;
4873;SDS011;2451;49.970;9.068;2023-09-07T07:38:54;5.18;;;3.47;;
4873;SDS011;2451;49.970;9.068;2023-09-07T07:41:20;4.95;;;3.40;;
4873;SDS011;2451;49.970;9.068;2023-09-07T07:43:46;4.10;;;2.88;;
4873;SDS011;2451;49.970;9.068;2023-09-07T07:46:11;6.15;;;3.00;;
4873;SDS011;2451;49.970;9.068;2023-09-07T07:51:06;4.15;;;2.88;;
4873;SDS011;2451;49.970;9.068;2023-09-07T07:53:32;4.38;;;3.15;;
4873;SDS011;2451;49.970;9.068;2023-09-07T07:55:57;5.07;;;3.30;;
4873;SDS011;2451;49.970;9.068;2023-09-07T07:58:23;4.88;;;3.10;;
4873;SDS011;2451;49.970;9.068;2023-09-07T08:00:48;4.60;;;3.00;;
4873;SDS011;2451;49.970;9.068;2023-09-07T08:03:14;4.30;;;3.03;;
4873;SDS011;2451;49.970;9.068;2023-09-07T08:05:40;4.30;;;2.83;;
4873;SDS011;2451;49.970;9.068;2023-09-07T08:08:06;4.45;;;2.65;;
4873;SDS011;2451;49.970;9.068;2023-09-07T08:10:34;4.68;;;2.90;;
4873;SDS011;2451;49.970;9.068;2023-09-07T08:13:02;3.63;;;2.80;;
4873;SDS011;2451;49.970;9.068;2023-09-07T08:15:28;4.43;;;2.70;;
4873;SDS011;2451;49.970;9.068;2023-09-07T08:17:54;4.22;;;2.90;;
4873;SDS011;2451;49.970;9.068;2023-09-07T08:20:21;4.07;;;2.88;;
4873;SDS011;2451;49.970;9.068;2023-09-07T08:22:47;3.33;;;2.58;;
4873;SDS011;2451;49.970;9.068;2023-09-07T08:25:13;5.30;;;2.78;;
4873;SDS011;2451;49.970;9.068;2023-09-07T08:27:42;3.53;;;2.63;;
4873;SDS011;2451;49.970;9.068;2023-09-07T08:30:13;3.60;;;2.42;;
4873;SDS011;2451;49.970;9.068;2023-09-07T08:32:43;3.67;;;2.47;;
4873;SDS011;2451;49.970;9.068;2023-09-07T08:35:10;4.85;;;3.00;;
4873;SDS011;2451;49.970;9.068;2023-09-07T08:37:40;3.70;;;2.47;;
4873;SDS011;2451;49.970;9.068;2023-09-07T08:40:06;4.30;;;2.70;;
4873;SDS011;2451;49.970;9.068;2023-09-07T08:42:32;3.63;;;2.70;;
4873;SDS011;2451;49.970;9.068;2023-09-07T08:45:01;3.92;;;2.80;;
4873;SDS011;2451;49.970;9.068;2023-09-07T08:47:31;4.07;;;2.63;;
4873;SDS011;2451;49.970;9.068;2023-09-07T08:49:58;4.13;;;2.75;;
4873;SDS011;2451;49.970;9.068;2023-09-07T08:52:24;3.83;;;2.70;;
4873;SDS011;2451;49.970;9.068;2023-09-07T08:54:50;3.83;;;2.60;;
4873;SDS011;2451;49.970;9.068;2023-09-07T08:57:17;4.72;;;2.70;;
4873;SDS011;2451;49.970;9.068;2023-09-07T08:59:43;3.65;;;2.60;;
4873;SDS011;2451;49.970;9.068;2023-09-07T09:02:09;2.95;;;2.30;;
4873;SDS011;2451;49.970;9.068;2023-09-07T09:04:36;3.17;;;2.30;;
4873;SDS011;2451;49.970;9.068;2023-09-07T09:07:02;3.47;;;2.65;;
4873;SDS011;2451;49.970;9.068;2023-09-07T09:09:28;5.07;;;2.80;;
4873;SDS011;2451;49.970;9.068;2023-09-07T09:11:54;3.47;;;2.50;;
4873;SDS011;2451;49.970;9.068;2023-09-07T09:14:20;3.85;;;2.60;;
4873;SDS011;2451;49.970;9.068;2023-09-07T09:16:51;3.75;;;2.50;;
4873;SDS011;2451;49.970;9.068;2023-09-07T09:19:17;5.10;;;2.97;;
4873;SDS011;2451;49.970;9.068;2023-09-07T09:21:44;3.10;;;2.40;;
4873;SDS011;2451;49.970;9.068;2023-09-07T09:24:10;3.13;;;2.40;;
4873;SDS011;2451;49.970;9.068;2023-09-07T09:26:37;3.60;;;2.70;;
4873;SDS011;2451;49.970;9.068;2023-09-07T09:29:02;3.80;;;2.58;;
4873;SDS011;2451;49.970;9.068;2023-09-07T09:31:29;3.63;;;2.60;;
4873;SDS011;2451;49.970;9.068;2023-09-07T09:33:55;3.80;;;2.50;;
4873;SDS011;2451;49.970;9.068;2023-09-07T09:36:22;3.78;;;2.40;;
4873;SDS011;2451;49.970;9.068;2023-09-07T09:38:48;5.15;;;2.53;;
4873;SDS011;2451;49.970;9.068;2023-09-07T09:41:16;4.85;;;2.58;;
4873;SDS011;2451;49.970;9.068;2023-09-07T09:43:42;3.95;;;2.40;;
4873;SDS011;2451;49.970;9.068;2023-09-07T09:46:10;4.00;;;2.63;;
4873;SDS011;2451;49.970;9.068;2023-09-07T09:48:38;4.10;;;2.47;;
4873;SDS011;2451;49.970;9.068;2023-09-07T09:51:06;6.20;;;2.63;;
4873;SDS011;2451;49.970;9.068;2023-09-07T09:53:32;3.65;;;2.50;;
4873;SDS011;2451;49.970;9.068;2023-09-07T09:55:58;3.10;;;2.45;;
4873;SDS011;2451;49.970;9.068;2023-09-07T09:58:24;3.50;;;2.45;;
4873;SDS011;2451;49.970;9.068;2023-09-07T10:00:50;3.83;;;2.65;;
4873;SDS011;2451;49.970;9.068;2023-09-07T10:03:24;2.80;;;2.15;;
4873;SDS011;2451;49.970;9.068;2023-09-07T10:06:23;3.25;;;2.42;;
4873;SDS011;2451;49.970;9.068;2023-09-07T10:08:54;2.92;;;2.28;;
4873;SDS011;2451;49.970;9.068;2023-09-07T10:11:26;3.88;;;2.55;;
4873;SDS011;2451;49.970;9.068;2023-09-07T10:13:58;3.30;;;2.40;;
4873;SDS011;2451;49.970;9.068;2023-09-07T10:16:24;2.83;;;2.15;;
4873;SDS011;2451;49.970;9.068;2023-09-07T10:18:52;3.88;;;2.50;;
4873;SDS011;2451;49.970;9.068;2023-09-07T10:21:17;3.22;;;2.42;;
4873;SDS011;2451;49.970;9.068;2023-09-07T10:23:44;3.53;;;2.50;;
4873;SDS011;2451;49.970;9.068;2023-09-07T10:26:11;2.47;;;2.00;;
4873;SDS011;2451;49.970;9.068;2023-09-07T10:28:41;3.85;;;2.72;;
4873;SDS011;2451;49.970;9.068;2023-09-07T10:31:15;3.50;;;2.58;;
4873;SDS011;2451;49.970;9.068;2023-09-07T10:33:44;3.13;;;2.30;;
4873;SDS011;2451;49.970;9.068;2023-09-07T10:36:24;3.38;;;2.60;;
4873;SDS011;2451;49.970;9.068;2023-09-07T10:38:51;3.65;;;2.45;;
4873;SDS011;2451;49.970;9.068;2023-09-07T10:41:20;3.13;;;2.50;;
4873;SDS011;2451;49.970;9.068;2023-09-07T10:43:47;3.55;;;2.42;;
4873;SDS011;2451;49.970;9.068;2023-09-07T10:46:18;4.25;;;2.67;;
4873;SDS011;2451;49.970;9.068;2023-09-07T10:48:48;3.60;;;2.38;;
4873;SDS011;2451;49.970;9.068;2023-09-07T10:51:18;3.25;;;2.40;;
4873;SDS011;2451;49.970;9.068;2023-09-07T10:53:44;4.55;;;2.58;;
4873;SDS011;2451;49.970;9.068;2023-09-07T10:56:10;3.03;;;2.30;;
4873;SDS011;2451;49.970;9.068;2023-09-07T10:58:36;4.05;;;2.33;;
4873;SDS011;2451;49.970;9.068;2023-09-07T11:01:07;4.07;;;2.53;;
4873;SDS011;2451;49.970;9.068;2023-09-07T11:03:34;3.58;;;2.40;;
4873;SDS011;2451;49.970;9.068;2023-09-07T11:08:41;3.88;;;2.70;;
4873;SDS011;2451;49.970;9.068;2023-09-07T11:11:07;2.85;;;2.20;;
4873;SDS011;2451;49.970;9.068;2023-09-07T11:13:33;3.97;;;2.50;;
4873;SDS011;2451;49.970;9.068;2023-09-07T11:15:59;2.55;;;2.30;;
4873;SDS011;2451;49.970;9.068;2023-09-07T11:18:25;3.35;;;2.40;;
4873;SDS011;2451;49.970;9.068;2023-09-07T11:20:52;3.92;;;2.58;;
4873;SDS011;2451;49.970;9.068;2023-09-07T11:23:18;2.88;;;2.13;;
4873;SDS011;2451;49.970;9.068;2023-09-07T11:25:46;3.75;;;2.75;;
4873;SDS011;2451;49.970;9.068;2023-09-07T11:30:50;3.03;;;2.35;;
4873;SDS011;2451;49.970;9.068;2023-09-07T11:33:17;4.07;;;2.30;;
4873;SDS011;2451;49.970;9.068;2023-09-07T11:35:43;3.03;;;2.20;;
4873;SDS011;2451;49.970;9.068;2023-09-07T11:38:12;2.97;;;2.28;;
4873;SDS011;2451;49.970;9.068;2023-09-07T11:40:39;2.85;;;2.25;;
4873;SDS011;2451;49.970;9.068;2023-09-07T11:43:05;3.55;;;2.50;;
4873;SDS011;2451;49.970;9.068;2023-09-07T11:45:30;3.35;;;2.30;;
4873;SDS011;2451;49.970;9.068;2023-09-07T11:47:57;4.38;;;2.30;;
4873;SDS011;2451;49.970;9.068;2023-09-07T11:50:25;3.88;;;2.50;;
4873;SDS011;2451;49.970;9.068;2023-09-07T11:52:53;3.47;;;2.50;;
4873;SDS011;2451;49.970;9.068;2023-09-07T11:55:18;5.13;;;3.17;;
4873;SDS011;2451;49.970;9.068;2023-09-07T11:57:44;3.03;;;2.45;;
4873;SDS011;2451;49.970;9.068;2023-09-07T12:00:09;4.28;;;2.60;;
4873;SDS011;2451;49.970;9.068;2023-09-07T12:02:35;3.45;;;2.28;;
4873;SDS011;2451;49.970;9.068;2023-09-07T12:05:02;3.78;;;2.55;;
4873;SDS011;2451;49.970;9.068;2023-09-07T12:07:28;3.05;;;2.40;;
4873;SDS011;2451;49.970;9.068;2023-09-07T12:09:55;3.38;;;2.30;;
4873;SDS011;2451;49.970;9.068;2023-09-07T12:12:22;3.65;;;2.50;;
4873;SDS011;2451;49.970;9.068;2023-09-07T12:14:48;3.40;;;2.40;;
4873;SDS011;2451;49.970;9.068;2023-09-07T12:17:13;2.47;;;2.00;;
4873;SDS011;2451;49.970;9.068;2023-09-07T12:19:39;3.30;;;2.28;;
4873;SDS011;2451;49.970;9.068;2023-09-07T12:22:06;2.50;;;2.15;;
4873;SDS011;2451;49.970;9.068;2023-09-07T12:24:32;4.90;;;2.42;;
4873;SDS011;2451;49.970;9.068;2023-09-07T12:26:58;3.13;;;2.30;;
4873;SDS011;2451;49.970;9.068;2023-09-07T12:29:24;3.33;;;2.40;;
4873;SDS011;2451;49.970;9.068;2023-09-07T12:31:50;3.33;;;2.30;;
4873;SDS011;2451;49.970;9.068;2023-09-07T12:34:16;4.18;;;2.63;;
4873;SDS011;2451;49.970;9.068;2023-09-07T12:36:41;3.22;;;2.28;;
4873;SDS011;2451;49.970;9.068;2023-09-07T12:39:07;4.57;;;2.42;;
4873;SDS011;2451;49.970;9.068;2023-09-07T12:41:32;2.85;;;2.30;;
4873;SDS011;2451;49.970;9.068;2023-09-07T12:43:58;2.97;;;2.25;;
4873;SDS011;2451;49.970;9.068;2023-09-07T12:46:24;3.72;;;2.13;;
4873;SDS011;2451;49.970;9.068;2023-09-07T12:48:49;3.13;;;2.35;;
4873;SDS011;2451;49.970;9.068;2023-09-07T12:51:15;3.15;;;2.25;;
4873;SDS011;2451;49.970;9.068;2023-09-07T12:53:41;3.22;;;2.20;;
4873;SDS011;2451;49.970;9.068;2023-09-07T12:56:06;3.05;;;2.13;;
4873;SDS011;2451;49.970;9.068;2023-09-07T12:58:32;3.55;;;2.10;;
4873;SDS011;2451;49.970;9.068;2023-09-07T13:00:57;3.78;;;2.50;;
4873;SDS011;2451;49.970;9.068;2023-09-07T13:03:23;4.25;;;2.58;;
4873;SDS011;2451;49.970;9.068;2023-09-07T13:05:48;3.72;;;2.35;;
4873;SDS011;2451;49.970;9.068;2023-09-07T13:08:14;3.60;;;2.33;;
4873;SDS011;2451;49.970;9.068;2023-09-07T13:10:40;3.42;;;2.10;;
4873;SDS011;2451;49.970;9.068;2023-09-07T13:13:06;2.95;;;2.25;;
4873;SDS011;2451;49.970;9.068;2023-09-07T13:15:32;3.38;;;2.25;;
4873;SDS011;2451;49.970;9.068;2023-09-07T13:17:58;2.97;;;2.33;;
4873;SDS011;2451;49.970;9.068;2023-09-07T13:20:24;3.08;;;2.03;;
4873;SDS011;2451;49.970;9.068;2023-09-07T13:22:49;4.15;;;2.72;;
4873;SDS011;2451;49.970;9.068;2023-09-07T13:25:15;3.60;;;2.50;;
4873;SDS011;2451;49.970;9.068;2023-09-07T13:27:40;2.95;;;2.25;;
4873;SDS011;2451;49.970;9.068;2023-09-07T13:30:06;3.50;;;2.38;;
4873;SDS011;2451;49.970;9.068;2023-09-07T13:32:33;4.13;;;2.22;;
4873;SDS011;2451;49.970;9.068;2023-09-07T13:34:59;3.78;;;2.42;;
4873;SDS011;2451;49.970;9.068;2023-09-07T13:37:25;4.22;;;2.53;;
4873;SDS011;2451;49.970;9.068;2023-09-07T13:39:50;4.20;;;2.30;;
4873;SDS011;2451;49.970;9.068;2023-09-07T13:42:16;2.95;;;2.00;;
4873;SDS011;2451;49.970;9.068;2023-09-07T13:44:41;2.90;;;2.00;;
4873;SDS011;2451;49.970;9.068;2023-09-07T13:47:07;3.40;;;2.38;;
4873;SDS011;2451;49.970;9.068;2023-09-07T13:49:33;3.63;;;2.40;;
4873;SDS011;2451;49.970;9.068;2023-09-07T13:51:59;3.33;;;2.30;;
4873;SDS011;2451;49.970;9.068;2023-09-07T13:54:24;4.28;;;2.63;;
4873;SDS011;2451;49.970;9.068;2023-09-07T13:56:50;3.58;;;2.40;;
4873;SDS011;2451;49.970;9.068;2023-09-07T13:59:15;2.90;;;2.20;;
4873;SDS011;2451;49.970;9.068;2023-09-07T14:01:41;4.32;;;2.50;;
4873;SDS011;2451;49.970;9.068;2023-09-07T14:04:07;3.20;;;2.20;;
4873;SDS011;2451;49.970;9.068;2023-09-07T14:06:32;3.67;;;2.30;;
4873;SDS011;2451;49.970;9.068;2023-09-07T14:08:58;4.05;;;2.60;;
4873;SDS011;2451;49.970;9.068;2023-09-07T14:11:23;3.55;;;2.42;;
4873;SDS011;2451;49.970;9.068;2023-09-07T14:13:49;3.30;;;2.28;;
4873;SDS011;2451;49.970;9.068;2023-09-07T14:16:19;5.40;;;2.50;;
4873;SDS011;2451;49.970;9.068;2023-09-07T14:18:46;3.22;;;2.42;;
4873;SDS011;2451;49.970;9.068;2023-09-07T14:21:13;3.65;;;2.30;;
4873;SDS011;2451;49.970;9.068;2023-09-07T14:23:39;2.90;;;2.10;;
4873;SDS011;2451;49.970;9.068;2023-09-07T14:26:05;3.17;;;2.22;;
4873;SDS011;2451;49.970;9.068;2023-09-07T14:28:31;3.50;;;2.25;;
4873;SDS011;2451;49.970;9.068;2023-09-07T14:30:56;3.22;;;2.20;;
4873;SDS011;2451;49.970;9.068;2023-09-07T14:33:23;3.63;;;2.25;;
4873;SDS011;2451;49.970;9.068;2023-09-07T14:35:50;3.58;;;2.53;;
4873;SDS011;2451;49.970;9.068;2023-09-07T14:38:19;3.00;;;2.38;;
4873;SDS011;2451;49.970;9.068;2023-09-07T14:40:45;3.13;;;2.33;;
4873;SDS011;2451;49.970;9.068;2023-09-07T14:43:10;3.40;;;2.13;;
4873;SDS011;2451;49.970;9.068;2023-09-07T14:45:36;2.95;;;2.25;;
4873;SDS011;2451;49.970;9.068;2023-09-07T14:48:01;3.92;;;2.63;;
4873;SDS011;2451;49.970;9.068;2023-09-07T14:50:27;3.80;;;2.35;;
4873;SDS011;2451;49.970;9.068;2023-09-07T14:52:53;3.03;;;2.33;;
4873;SDS011;2451;49.970;9.068;2023-09-07T14:55:18;3.60;;;2.15;;
4873;SDS011;2451;49.970;9.068;2023-09-07T14:57:44;4.32;;;2.30;;
4873;SDS011;2451;49.970;9.068;2023-09-07T15:00:09;3.03;;;2.22;;
4873;SDS011;2451;49.970;9.068;2023-09-07T15:02:36;3.78;;;2.25;;
4873;SDS011;2451;49.970;9.068;2023-09-07T15:05:02;4.22;;;2.33;;
4873;SDS011;2451;49.970;9.068;2023-09-07T15:07:27;3.17;;;2.45;;
4873;SDS011;2451;49.970;9.068;2023-09-07T15:09:53;2.67;;;2.08;;
4873;SDS011;2451;49.970;9.068;2023-09-07T15:12:18;3.47;;;2.50;;
4873;SDS011;2451;49.970;9.068;2023-09-07T15:14:44;3.80;;;2.30;;
4873;SDS011;2451;49.970;9.068;2023-09-07T15:17:09;6.15;;;2.17;;
4873;SDS011;2451;49.970;9.068;2023-09-07T15:19:36;3.80;;;2.30;;
4873;SDS011;2451;49.970;9.068;2023-09-07T15:22:02;2.85;;;2.10;;
4873;SDS011;2451;49.970;9.068;2023-09-07T15:24:28;3.38;;;2.33;;